Time;durP1;ratioP1;P1;durP2;ratioP2;P2;SDS_P1;SDS_P2;PMS_P1;PMS_P2;Temp;Humidity;BMP_temperature;BMP_pressure;BME280_temperature;BME280_humidity;BME280_pressure;Samples;Min_cycle;Max_cycle;Signal;HPM_P1;HPM_P2
2024/01/03 00:02:33;;;;;;;6.17;4.70;;;3.50;89.70;;;;;;6282261;28;20224;-65
2024/01/03 00:05:38;;;;;;;4.17;3.50;;;3.50;90.20;;;;;;6274625;28;20193;-65
2024/01/03 00:08:38;;;;;;;5.03;3.80;;;3.50;89.60;;;;;;6280205;28;20193;-65
2024/01/03 00:11:39;;;;;;;5.43;3.40;;;3.50;89.70;;;;;;6262209;28;20196;-65
2024/01/03 00:14:40;;;;;;;6.50;3.93;;;3.50;89.20;;;;;;6284833;28;20207;-65
2024/01/03 00:17:43;;;;;;;5.47;3.73;;;3.50;88.90;;;;;;6266951;28;20195;-65
2024/01/03 00:20:44;;;;;;;5.07;3.97;;;3.50;89.20;;;;;;6278833;28;20200;-65
2024/01/03 00:23:49;;;;;;;4.87;3.90;;;3.50;89.60;;;;;;6262432;28;20250;-65
2024/01/03 00:26:49;;;;;;;5.80;3.87;;;3.50;89.10;;;;;;6284961;28;20191;-65
2024/01/03 00:29:58;;;;;;;4.47;3.30;;;3.50;89.10;;;;;;6265233;28;20184;-65
2024/01/03 00:32:58;;;;;;;5.57;3.63;;;3.50;89.20;;;;;;6300288;28;20220;-65
2024/01/03 00:35:59;;;;;;;7.07;4.03;;;3.60;89.40;;;;;;6261379;28;20196;-65
2024/01/03 00:39:00;;;;;;;3.30;2.80;;;3.60;89.30;;;;;;6265228;28;20191;-65
2024/01/03 00:42:00;;;;;;;5.30;3.63;;;3.60;89.50;;;;;;6253190;28;20212;-65
2024/01/03 00:45:02;;;;;;;4.87;3.17;;;3.60;89.60;;;;;;6303175;28;20176;-65
2024/01/03 00:48:02;;;;;;;6.30;3.83;;;3.60;89.60;;;;;;6279490;28;20189;-65
2024/01/03 00:51:04;;;;;;;4.83;3.73;;;3.60;89.30;;;;;;6270550;28;20244;-65
2024/01/03 00:54:04;;;;;;;4.77;3.10;;;3.60;89.60;;;;;;6270787;28;20195;-65
2024/01/03 00:57:06;;;;;;;5.27;3.60;;;3.60;89.20;;;;;;6266048;28;20252;-66
2024/01/03 01:00:07;;;;;;;4.30;3.33;;;3.60;89.90;;;;;;6294133;28;20185;-66
2024/01/03 01:03:08;;;;;;;4.23;3.03;;;3.60;89.00;;;;;;6260878;28;20239;-65
2024/01/03 01:06:08;;;;;;;4.23;3.20;;;3.60;88.90;;;;;;6264090;28;20188;-65
2024/01/03 01:09:09;;;;;;;4.13;3.03;;;3.60;88.70;;;;;;6262366;28;20187;-65
2024/01/03 01:12:10;;;;;;;3.67;2.97;;;3.60;87.90;;;;;;6280746;28;20204;-66
2024/01/03 01:15:11;;;;;;;5.90;3.80;;;3.60;89.10;;;;;;6254651;28;20276;-66
2024/01/03 01:18:11;;;;;;;4.60;3.10;;;3.60;88.50;;;;;;6261965;28;20189;-66
2024/01/03 01:21:12;;;;;;;3.93;3.20;;;3.60;87.60;;;;;;6263109;28;20196;-66
2024/01/03 01:24:13;;;;;;;6.30;3.97;;;3.60;87.80;;;;;;6269455;28;20200;-66
2024/01/03 01:27:13;;;;;;;8.00;4.23;;;3.60;88.20;;;;;;6260592;28;20286;-66
2024/01/03 01:30:14;;;;;;;5.07;3.60;;;3.60;88.10;;;;;;6264568;28;20231;-66
2024/01/03 01:33:15;;;;;;;4.50;3.30;;;3.50;87.90;;;;;;6282423;28;20192;-67
2024/01/03 01:36:15;;;;;;;6.20;3.57;;;3.60;87.20;;;;;;6275110;28;20206;-67
2024/01/03 01:39:16;;;;;;;3.50;3.13;;;3.60;87.60;;;;;;6285582;28;20201;-67
2024/01/03 01:42:17;;;;;;;3.80;2.90;;;3.60;87.50;;;;;;6286719;28;20207;-66
2024/01/03 01:45:18;;;;;;;4.00;3.10;;;3.70;87.50;;;;;;6268040;28;20195;-66
2024/01/03 01:48:19;;;;;;;5.60;3.10;;;3.70;87.90;;;;;;6275803;28;20194;-66
2024/01/03 01:51:20;;;;;;;3.90;3.00;;;3.70;88.10;;;;;;6278746;28;20196;-66
2024/01/03 01:54:21;;;;;;;4.63;3.37;;;3.70;88.10;;;;;;6307586;28;20180;-66
2024/01/03 01:57:22;;;;;;;4.03;3.27;;;3.70;88.40;;;;;;6270276;28;20233;-66
2024/01/03 02:00:22;;;;;;;5.27;3.27;;;3.70;88.20;;;;;;6266505;28;20545;-66
2024/01/03 02:03:23;;;;;;;5.53;3.77;;;3.70;88.00;;;;;;6262032;28;20208;-66
2024/01/03 02:06:24;;;;;;;4.30;3.63;;;3.70;87.50;;;;;;6295716;28;20185;-66
2024/01/03 02:09:25;;;;;;;4.80;3.40;;;3.60;87.50;;;;;;6269386;28;20219;-66
2024/01/03 02:12:29;;;;;;;3.47;2.90;;;3.60;87.90;;;;;;6272270;28;20200;-66
2024/01/03 02:15:29;;;;;;;4.10;3.03;;;3.60;87.70;;;;;;6310167;28;20197;-66
2024/01/03 02:18:30;;;;;;;3.37;2.60;;;3.60;87.80;;;;;;6265734;28;20228;-66
2024/01/03 02:21:31;;;;;;;3.73;2.50;;;3.50;88.00;;;;;;6285362;28;20190;-66
2024/01/03 02:24:32;;;;;;;3.73;2.67;;;3.50;87.80;;;;;;6319904;28;20181;-66
2024/01/03 02:27:32;;;;;;;3.53;2.50;;;3.40;87.90;;;;;;6271810;28;20184;-66
2024/01/03 02:30:33;;;;;;;3.93;2.67;;;3.30;87.50;;;;;;6269753;28;20188;-66
2024/01/03 02:33:34;;;;;;;3.97;2.97;;;3.30;87.50;;;;;;6252042;28;20201;-66
2024/01/03 02:36:34;;;;;;;4.13;3.00;;;3.30;88.00;;;;;;6270280;28;20187;-66
2024/01/03 02:39:35;;;;;;;3.40;2.53;;;3.20;87.80;;;;;;6265517;28;20267;-66
2024/01/03 02:42:36;;;;;;;4.30;2.73;;;3.10;88.60;;;;;;6262885;28;20222;-66
2024/01/03 02:45:37;;;;;;;5.10;2.50;;;3.10;88.30;;;;;;6274704;28;20263;-66
2024/01/03 02:48:40;;;;;;;3.63;2.57;;;3.10;88.30;;;;;;6277677;28;20287;-66
2024/01/03 02:51:41;;;;;;;3.97;2.80;;;3.10;88.20;;;;;;6280044;28;20188;-66
2024/01/03 02:54:42;;;;;;;6.17;3.43;;;3.00;88.20;;;;;;6261830;28;20192;-66
2024/01/03 02:57:42;;;;;;;5.13;3.07;;;3.10;87.80;;;;;;6285862;28;20236;-66
2024/01/03 03:00:43;;;;;;;4.07;2.60;;;3.00;88.50;;;;;;6258921;28;20189;-66
2024/01/03 03:03:44;;;;;;;4.00;3.17;;;3.10;88.20;;;;;;6267008;28;20298;-66
2024/01/03 03:06:45;;;;;;;4.17;3.00;;;3.10;88.30;;;;;;6266936;28;20183;-66
2024/01/03 03:09:46;;;;;;;3.20;2.80;;;3.10;88.10;;;;;;6272339;28;20192;-66
2024/01/03 03:12:46;;;;;;;3.30;2.73;;;3.10;88.00;;;;;;6286585;28;20618;-66
2024/01/03 03:15:47;;;;;;;3.97;3.07;;;3.10;88.00;;;;;;6266525;28;20192;-66
2024/01/03 03:18:48;;;;;;;6.23;3.00;;;3.10;87.60;;;;;;6267617;28;20199;-66
2024/01/03 03:21:48;;;;;;;3.63;2.67;;;3.10;87.50;;;;;;6269969;28;20208;-66
2024/01/03 03:24:49;;;;;;;4.20;3.03;;;3.10;88.20;;;;;;6273324;28;20200;-66
2024/01/03 03:27:50;;;;;;;3.27;2.73;;;3.10;88.00;;;;;;6264915;28;20243;-66
2024/01/03 03:30:50;;;;;;;3.13;2.60;;;3.10;87.70;;;;;;6277561;28;20213;-66
2024/01/03 03:33:51;;;;;;;5.00;2.70;;;3.20;87.70;;;;;;6284231;28;20233;-66
2024/01/03 03:36:52;;;;;;;3.33;2.50;;;3.30;87.80;;;;;;6271551;28;20188;-66
2024/01/03 03:39:52;;;;;;;4.07;2.63;;;3.30;87.30;;;;;;6271013;28;20197;-66
2024/01/03 03:42:53;;;;;;;5.73;2.60;;;3.40;87.50;;;;;;6267824;28;20231;-66
2024/01/03 03:45:54;;;;;;;4.00;2.80;;;3.30;86.40;;;;;;6262504;28;20212;-66
2024/01/03 03:48:54;;;;;;;4.83;3.07;;;3.30;86.80;;;;;;6283984;28;20235;-66
2024/01/03 03:51:55;;;;;;;3.60;2.77;;;3.30;86.60;;;;;;6269690;28;20185;-66
2024/01/03 03:54:56;;;;;;;2.97;2.13;;;3.30;87.00;;;;;;6277626;28;20186;-66
2024/01/03 03:57:56;;;;;;;4.60;2.63;;;3.30;85.90;;;;;;6249342;28;20240;-66
2024/01/03 04:00:57;;;;;;;4.37;2.90;;;3.30;86.10;;;;;;6290657;28;20198;-66
2024/01/03 04:03:58;;;;;;;5.73;2.90;;;3.30;86.90;;;;;;6282270;28;20228;-66
2024/01/03 04:06:58;;;;;;;4.77;2.43;;;3.30;86.60;;;;;;6265031;28;20208;-66
2024/01/03 04:10:00;;;;;;;4.03;2.80;;;3.10;85.60;;;;;;6268612;28;20670;-66
2024/01/03 04:13:00;;;;;;;3.07;2.67;;;3.10;86.80;;;;;;6266235;28;20721;-66
2024/01/03 04:16:05;;;;;;;3.50;2.80;;;3.10;86.80;;;;;;6299669;28;20179;-66
2024/01/03 04:19:05;;;;;;;3.97;2.53;;;3.10;86.80;;;;;;6281387;28;20261;-66
2024/01/03 04:22:06;;;;;;;3.97;2.63;;;3.10;87.00;;;;;;6265226;28;20219;-66
2024/01/03 04:25:07;;;;;;;4.20;2.60;;;3.10;86.90;;;;;;6283896;28;20196;-66
2024/01/03 04:28:08;;;;;;;3.80;2.60;;;3.10;87.10;;;;;;6266724;28;20228;-66
2024/01/03 04:31:09;;;;;;;4.17;2.80;;;3.10;87.00;;;;;;6271710;28;20196;-66
2024/01/03 04:34:10;;;;;;;3.33;3.03;;;3.10;87.10;;;;;;6269398;28;20210;-66
2024/01/03 04:37:10;;;;;;;5.37;2.97;;;3.10;87.10;;;;;;6262669;28;20197;-66
2024/01/03 04:40:11;;;;;;;3.37;2.77;;;3.10;87.40;;;;;;6261104;28;20194;-66
2024/01/03 04:43:12;;;;;;;2.30;2.10;;;3.10;87.10;;;;;;6266123;28;20219;-66
2024/01/03 04:46:13;;;;;;;3.37;2.53;;;3.10;87.30;;;;;;6281549;28;20189;-67
2024/01/03 04:49:13;;;;;;;3.87;2.73;;;3.10;87.60;;;;;;6277825;28;21068;-66
2024/01/03 04:52:14;;;;;;;3.30;2.90;;;3.10;87.30;;;;;;6262151;28;20314;-66
2024/01/03 04:55:15;;;;;;;5.23;2.67;;;3.10;87.50;;;;;;6276920;28;20231;-66
2024/01/03 04:58:16;;;;;;;3.07;2.57;;;3.10;87.20;;;;;;6261366;28;20236;-66
2024/01/03 05:01:16;;;;;;;3.00;2.60;;;3.10;87.20;;;;;;6285066;28;20196;-66
2024/01/03 05:04:17;;;;;;;3.73;3.07;;;3.10;87.20;;;;;;6259497;28;20216;-66
2024/01/03 05:07:18;;;;;;;4.20;2.70;;;3.10;86.70;;;;;;6278104;28;20197;-66
2024/01/03 05:10:19;;;;;;;3.00;2.60;;;3.00;86.10;;;;;;6286287;28;20219;-66
2024/01/03 05:13:20;;;;;;;3.87;2.60;;;3.00;87.00;;;;;;6279579;28;20203;-66
2024/01/03 05:16:21;;;;;;;2.57;2.00;;;2.90;86.70;;;;;;6277827;28;20195;-66
2024/01/03 05:19:21;;;;;;;4.00;2.40;;;2.90;87.10;;;;;;6296172;28;20216;-66
2024/01/03 05:22:22;;;;;;;3.13;2.83;;;2.90;87.10;;;;;;6266442;28;20238;-66
2024/01/03 05:25:23;;;;;;;3.10;2.33;;;2.90;86.80;;;;;;6258635;28;20266;-66
2024/01/03 05:28:23;;;;;;;5.27;2.50;;;2.90;87.10;;;;;;6285426;28;20181;-66
2024/01/03 05:31:24;;;;;;;3.97;2.77;;;2.90;87.40;;;;;;6299021;28;20197;-66
2024/01/03 05:34:25;;;;;;;3.37;2.60;;;2.90;87.30;;;;;;6265616;28;20197;-66
2024/01/03 05:37:25;;;;;;;4.20;2.97;;;2.90;87.80;;;;;;6262380;28;20199;-67
2024/01/03 05:40:26;;;;;;;2.67;2.40;;;2.90;87.70;;;;;;6266993;28;20190;-66
2024/01/03 05:43:28;;;;;;;2.97;2.53;;;2.90;87.30;;;;;;6267247;28;20227;-65
2024/01/03 05:46:28;;;;;;;4.30;2.33;;;2.90;87.10;;;;;;6275361;28;20189;-65
2024/01/03 05:49:29;;;;;;;2.70;2.50;;;2.90;87.10;;;;;;6284909;28;20207;-65
2024/01/03 05:52:30;;;;;;;3.13;2.20;;;2.80;86.90;;;;;;6256566;28;20201;-66
2024/01/03 05:55:31;;;;;;;4.17;2.60;;;2.80;87.50;;;;;;6269274;28;20218;-66
2024/01/03 05:58:32;;;;;;;2.80;2.30;;;2.80;87.60;;;;;;6264332;28;20274;-66
2024/01/03 06:01:32;;;;;;;3.83;2.50;;;2.80;87.90;;;;;;6295094;28;20192;-66
2024/01/03 06:04:33;;;;;;;2.70;2.50;;;2.80;87.80;;;;;;6288446;28;20245;-67
2024/01/03 06:07:34;;;;;;;3.63;2.50;;;2.80;88.00;;;;;;6268475;28;20194;-67
2024/01/03 06:10:35;;;;;;;2.60;2.40;;;2.80;88.20;;;;;;6265364;28;20276;-67
2024/01/03 06:13:35;;;;;;;3.80;2.50;;;2.80;88.30;;;;;;6303711;28;20185;-67
2024/01/03 06:16:36;;;;;;;2.73;2.33;;;2.80;88.70;;;;;;6273335;28;20199;-67
2024/01/03 06:19:37;;;;;;;3.07;2.57;;;2.80;88.40;;;;;;6287374;28;20209;-66
2024/01/03 06:22:37;;;;;;;4.90;2.57;;;2.80;88.20;;;;;;6295928;28;20230;-66
2024/01/03 06:25:38;;;;;;;2.97;2.10;;;2.80;88.50;;;;;;6262523;28;20207;-66
2024/01/03 06:28:39;;;;;;;3.63;2.37;;;2.80;88.20;;;;;;6258132;28;20258;-66
2024/01/03 06:31:39;;;;;;;3.20;2.53;;;2.80;88.20;;;;;;6267700;28;20196;-66
2024/01/03 06:34:40;;;;;;;6.50;2.20;;;2.80;88.40;;;;;;6249267;28;20190;-66
2024/01/03 06:37:41;;;;;;;3.90;2.30;;;2.70;87.60;;;;;;6265893;28;20188;-67
2024/01/03 06:40:42;;;;;;;4.43;2.57;;;2.70;87.40;;;;;;6296232;28;20670;-65
2024/01/03 06:43:43;;;;;;;3.23;2.67;;;2.60;88.00;;;;;;6280399;28;20313;-67
2024/01/03 06:46:43;;;;;;;3.97;2.50;;;2.50;88.30;;;;;;6269759;28;20187;-71
2024/01/03 06:49:44;;;;;;;3.43;2.60;;;2.50;88.00;;;;;;6304937;28;20196;-67
2024/01/03 06:52:45;;;;;;;4.47;2.57;;;2.50;88.40;;;;;;6280919;28;20198;-67
2024/01/03 06:55:45;;;;;;;2.40;2.17;;;2.50;88.00;;;;;;6265750;28;20203;-65
2024/01/03 06:58:46;;;;;;;2.93;2.43;;;2.50;87.90;;;;;;6270748;28;20298;-65
2024/01/03 07:01:47;;;;;;;2.40;2.07;;;2.40;88.10;;;;;;6266021;28;20237;-65
2024/01/03 07:04:47;;;;;;;3.33;2.20;;;2.40;88.40;;;;;;6270005;28;20216;-68
2024/01/03 07:07:48;;;;;;;4.00;2.23;;;2.40;88.40;;;;;;6272248;28;20201;-65
2024/01/03 07:10:49;;;;;;;3.53;2.70;;;2.40;88.50;;;;;;6261829;28;20256;-65
2024/01/03 07:13:49;;;;;;;3.40;3.10;;;2.50;88.00;;;;;;6265287;28;20196;-65
2024/01/03 07:16:50;;;;;;;5.90;3.40;;;2.50;87.80;;;;;;6261760;28;20230;-65
2024/01/03 07:19:51;;;;;;;4.23;3.00;;;2.50;87.80;;;;;;6260886;28;20222;-65
2024/01/03 07:22:51;;;;;;;4.10;2.80;;;2.40;87.90;;;;;;6269941;28;20208;-65
2024/01/03 07:25:52;;;;;;;3.17;2.47;;;2.50;88.00;;;;;;6268970;28;20180;-65
2024/01/03 07:28:53;;;;;;;2.90;2.57;;;2.50;87.90;;;;;;6257755;28;20217;-65
2024/01/03 07:31:54;;;;;;;3.37;2.77;;;2.40;88.00;;;;;;6251228;28;20189;-65
2024/01/03 07:34:54;;;;;;;2.37;2.17;;;2.40;88.20;;;;;;6251219;28;20201;-65
2024/01/03 07:37:55;;;;;;;3.07;2.33;;;2.40;88.00;;;;;;6261289;28;20189;-65
2024/01/03 07:40:56;;;;;;;4.17;2.80;;;2.50;88.20;;;;;;6266320;28;20189;-65
2024/01/03 07:43:57;;;;;;;3.30;2.40;;;2.50;87.90;;;;;;6277428;28;20216;-67
2024/01/03 07:46:58;;;;;;;2.53;2.30;;;2.50;88.10;;;;;;6284457;28;20218;-65
2024/01/03 07:49:59;;;;;;;3.10;2.77;;;2.50;88.30;;;;;;6279180;28;20265;-65
2024/01/03 07:53:00;;;;;;;2.40;2.20;;;2.40;88.20;;;;;;6304039;28;20184;-65
2024/01/03 07:56:01;;;;;;;3.00;2.37;;;2.50;88.20;;;;;;6258760;28;20216;-65
2024/01/03 07:59:01;;;;;;;3.17;2.67;;;2.50;88.20;;;;;;6270587;28;20236;-65
2024/01/03 08:02:03;;;;;;;3.00;2.57;;;2.50;88.20;;;;;;6278910;28;20222;-65
2024/01/03 08:05:07;;;;;;;4.10;2.27;;;2.50;88.30;;;;;;6262737;28;20197;-65
2024/01/03 08:08:07;;;;;;;2.97;2.20;;;2.50;88.20;;;;;;6269944;28;20197;-65
2024/01/03 08:11:08;;;;;;;3.80;2.80;;;2.50;87.90;;;;;;6268527;28;20192;-68
2024/01/03 08:14:09;;;;;;;3.40;2.67;;;2.50;88.10;;;;;;6273888;28;20551;-67
2024/01/03 08:17:09;;;;;;;6.37;2.93;;;2.60;88.20;;;;;;6264219;28;20289;-66
2024/01/03 08:20:11;;;;;;;3.37;3.00;;;2.60;87.90;;;;;;6267457;28;20295;-64
2024/01/03 08:23:11;;;;;;;4.40;2.87;;;2.70;88.00;;;;;;6275706;28;20235;-65
2024/01/03 08:26:12;;;;;;;6.80;3.40;;;2.70;87.40;;;;;;6271595;28;20196;-64
2024/01/03 08:29:13;;;;;;;4.57;2.83;;;2.70;87.80;;;;;;6286166;28;20187;-64
2024/01/03 08:32:14;;;;;;;6.87;2.90;;;2.80;87.90;;;;;;6258954;28;20200;-64
2024/01/03 08:35:15;;;;;;;5.87;2.83;;;2.80;88.00;;;;;;6285783;28;20201;-64
2024/01/03 08:38:15;;;;;;;4.27;3.00;;;2.80;88.00;;;;;;6268651;28;20256;-64
2024/01/03 08:41:18;;;;;;;4.60;2.83;;;2.90;88.20;;;;;;6271598;28;20321;-64
2024/01/03 08:44:19;;;;;;;8.10;5.97;;;2.90;87.90;;;;;;6282147;28;20213;-64
2024/01/03 08:47:20;;;;;;;9.07;6.80;;;2.90;88.00;;;;;;6294777;28;20176;-64
2024/01/03 08:50:21;;;;;;;8.67;6.47;;;3.00;88.00;;;;;;6264845;28;20192;-64
2024/01/03 08:53:22;;;;;;;4.30;3.90;;;3.00;88.00;;;;;;6282010;28;20200;-64
2024/01/03 08:56:23;;;;;;;4.13;3.10;;;3.00;88.00;;;;;;6272526;28;20235;-64
2024/01/03 08:59:23;;;;;;;3.90;3.10;;;3.10;88.00;;;;;;6268787;28;20241;-63
2024/01/03 09:02:24;;;;;;;8.10;6.00;;;3.10;88.00;;;;;;6286343;28;20217;-64
2024/01/03 09:05:25;;;;;;;7.53;5.33;;;3.10;88.10;;;;;;6276472;28;20184;-63
2024/01/03 09:08:25;;;;;;;6.27;4.67;;;3.20;88.20;;;;;;6254107;28;20187;-64
2024/01/03 09:11:27;;;;;;;6.27;4.33;;;3.30;88.00;;;;;;6254885;28;20289;-64
2024/01/03 09:14:27;;;;;;;4.97;4.30;;;3.30;88.30;;;;;;6262421;28;20221;-64
2024/01/03 09:17:28;;;;;;;5.67;3.27;;;3.30;88.50;;;;;;6269294;28;20194;-64
2024/01/03 09:20:29;;;;;;;3.37;3.07;;;3.40;88.30;;;;;;6262549;28;20189;-64
2024/01/03 09:23:30;;;;;;;5.67;4.00;;;3.50;88.30;;;;;;6263926;28;20218;-64
2024/01/03 09:26:31;;;;;;;4.57;3.03;;;3.50;88.10;;;;;;6278413;28;20189;-64
2024/01/03 09:29:32;;;;;;;5.33;3.17;;;3.60;87.90;;;;;;6265195;28;20236;-64
2024/01/03 09:32:32;;;;;;;3.30;2.83;;;3.70;87.70;;;;;;6270391;28;20192;-64
2024/01/03 09:35:33;;;;;;;5.47;3.20;;;3.80;87.80;;;;;;6266370;28;20192;-64
2024/01/03 09:38:34;;;;;;;3.17;2.50;;;3.90;87.40;;;;;;6265862;28;20195;-64
2024/01/03 09:41:35;;;;;;;3.50;2.43;;;4.00;86.50;;;;;;6259411;28;20192;-64
2024/01/03 09:44:36;;;;;;;3.07;2.40;;;4.10;85.60;;;;;;6265964;28;20185;-64
2024/01/03 09:47:36;;;;;;;4.10;2.50;;;4.20;85.00;;;;;;6269727;28;20189;-64
2024/01/03 09:50:38;;;;;;;4.60;2.30;;;4.40;82.80;;;;;;6266188;28;20216;-64
2024/01/03 09:53:40;;;;;;;3.03;2.23;;;4.50;82.60;;;;;;6281576;28;20196;-64
2024/01/03 09:56:41;;;;;;;6.23;2.50;;;4.50;83.30;;;;;;6284259;28;20762;-66
2024/01/03 09:59:42;;;;;;;3.07;2.10;;;4.60;82.70;;;;;;6286921;28;20200;-65
2024/01/03 10:02:47;;;;;;;2.40;2.20;;;4.70;82.80;;;;;;6280749;28;20200;-66
2024/01/03 10:06:07;;;;;;;2.97;2.23;;;4.70;83.50;;;;;;6284042;28;20199;-65
2024/01/03 10:09:11;;;;;;;2.47;2.10;;;4.70;84.10;;;;;;6313132;28;20189;-64
2024/01/03 10:12:18;;;;;;;2.10;1.60;;;4.70;83.60;;;;;;6283879;28;20659;-63
2024/01/03 10:15:20;;;;;;;2.00;1.80;;;4.70;83.60;;;;;;6303346;28;20296;-64
2024/01/03 10:18:22;;;;;;;3.07;2.10;;;4.90;83.70;;;;;;6286615;28;20223;-63
2024/01/03 10:21:22;;;;;;;2.13;1.67;;;5.00;82.70;;;;;;6276691;28;20215;-63
2024/01/03 10:24:24;;;;;;;2.50;1.93;;;5.00;82.20;;;;;;6265428;28;20216;-63
2024/01/03 10:27:25;;;;;;;2.37;1.80;;;5.10;82.10;;;;;;6300643;28;20215;-63
2024/01/03 10:30:26;;;;;;;2.20;1.77;;;5.20;82.20;;;;;;6262682;28;20192;-63
2024/01/03 10:33:27;;;;;;;2.97;2.27;;;5.30;82.20;;;;;;6267770;28;20188;-64
2024/01/03 10:36:29;;;;;;;2.53;2.07;;;5.30;81.30;;;;;;6265839;28;20192;-64
2024/01/03 10:39:32;;;;;;;3.00;2.40;;;5.50;81.10;;;;;;6282302;28;20193;-64
2024/01/03 10:42:32;;;;;;;3.40;2.13;;;5.70;80.30;;;;;;6273357;28;20220;-64
2024/01/03 10:45:33;;;;;;;3.80;2.37;;;;;;;;;;6276878;28;20193;-64
2024/01/03 10:48:36;;;;;;;4.10;2.00;;;;;;;;;;6287860;28;20245;-67
2024/01/03 10:51:41;;;;;;;2.30;1.70;;;;;;;;;;6310412;28;20192;-64
2024/01/03 10:54:46;;;;;;;2.83;1.90;;;;;;;;;;6295487;28;20208;-63
2024/01/03 10:58:03;;;;;;;3.93;1.70;;;24.00;50.00;;;;;;6304549;28;20228;-64
2024/01/03 11:01:16;;;;;;;2.63;1.93;;;6.60;76.60;;;;;;6286821;28;20221;-64
2024/01/03 11:04:47;;;;;;;1.60;1.37;;;;;;;;;;6299839;28;20236;-64
2024/01/03 11:07:51;;;;;;;1.47;1.37;;;;;;;;;;6283185;28;20200;-63
2024/01/03 11:10:53;;;;;;;1.87;1.67;;;;;;;;;;6312875;28;20191;-64
2024/01/03 11:13:56;;;;;;;1.63;1.43;;;;;;;;;;6300824;28;20223;-64
2024/01/03 11:16:57;;;;;;;2.00;1.70;;;;;;;;;;6290594;28;20211;-63
2024/01/03 11:20:08;;;;;;;1.87;1.50;;;;;;;;;;6294987;28;20199;-63
2024/01/03 11:23:09;;;;;;;3.47;1.83;;;;;;;;;;6303918;28;20213;-63
2024/01/03 11:26:10;;;;;;;2.20;1.63;;;;;;;;;;6282279;28;20277;-64
2024/01/03 11:29:11;;;;;;;2.30;1.53;;;;;;;;;;6289810;28;20192;-64
2024/01/03 11:32:31;;;;;;;3.43;2.20;;;;;;;;;;6297510;28;20208;-64
2024/01/03 11:35:47;;;;;;;2.70;1.80;;;;;;;;;;6304740;28;20224;-64
2024/01/03 11:38:48;;;;;;;2.90;2.13;;;;;;;;;;6301333;28;20213;-65
2024/01/03 11:41:49;;;;;;;2.77;1.67;;;;;;;;;;6283288;28;20200;-63
2024/01/03 11:45:00;;;;;;;2.67;1.50;;;;;;;;;;6300344;28;20196;-64
2024/01/03 11:48:02;;;;;;;1.80;1.47;;;;;;;;;;6294589;28;20221;-64
2024/01/03 11:51:04;;;;;;;2.37;1.60;;;;;;;;;;6293880;28;20193;-63
2024/01/03 11:54:06;;;;;;;2.20;1.60;;;;;;;;;;6288271;28;20199;-64
2024/01/03 11:57:07;;;;;;;2.80;1.50;;;6.70;76.50;;;;;;6303672;28;20238;-64
2024/01/03 12:00:20;;;;;;;3.20;1.50;;;8.80;69.10;;;;;;6277978;28;20201;-63
2024/01/03 12:03:26;;;;;;;2.10;1.50;;;24.00;50.00;;;;;;6295508;28;20299;-63
2024/01/03 12:06:30;;;;;;;2.40;1.50;;;9.10;67.40;;;;;;6271601;28;20193;-63
2024/01/03 12:09:33;;;;;;;2.50;1.70;;;;;;;;;;6286667;28;20200;-63
2024/01/03 12:12:34;;;;;;;5.13;1.97;;;;;;;;;;6306712;28;20196;-63
2024/01/03 12:15:35;;;;;;;2.47;1.93;;;;;;;;;;6282663;28;20196;-63
2024/01/03 12:18:47;;;;;;;3.30;1.90;;;;;;;;;;6296703;28;20195;-64
2024/01/03 12:21:58;;;;;;;2.47;1.80;;;;;;;;;;6296926;28;20204;-64
2024/01/03 12:24:59;;;;;;;2.27;1.40;;;;;;;;;;6303061;28;20188;-64
2024/01/03 12:28:00;;;;;;;2.07;1.50;;;;;;;;;;6288752;28;20192;-64
2024/01/03 12:31:01;;;;;;;3.10;1.70;;;;;;;;;;6296178;28;20185;-65
2024/01/03 12:34:06;;;;;;;3.20;1.70;;;;;;;;;;6271056;28;20201;-63
2024/01/03 12:37:07;;;;;;;2.53;1.83;;;;;;;;;;6288286;28;20280;-64
2024/01/03 12:40:09;;;;;;;5.20;2.27;;;;;;;;;;6303322;28;20189;-64
2024/01/03 12:43:10;;;;;;;5.70;2.30;;;;;;;;;;6277017;28;20265;-64
2024/01/03 12:46:11;;;;;;;6.03;2.50;;;;;;;;;;6276978;28;20204;-64
2024/01/03 12:49:12;;;;;;;5.40;3.30;;;;;;;;;;6272695;28;20197;-64
2024/01/03 12:52:14;;;;;;;5.37;4.87;;;;;;;;;;6286212;28;20228;-64
2024/01/03 12:55:15;;;;;;;5.37;2.97;;;;;;;;;;6283189;28;20200;-64
2024/01/03 12:58:16;;;;;;;4.70;2.70;;;;;;;;;;6287552;28;20236;-64
2024/01/03 13:01:17;;;;;;;4.17;2.40;;;;;;;;;;6286931;28;20222;-63
2024/01/03 13:04:18;;;;;;;4.10;2.20;;;;;;;;;;6286447;28;20273;-63
2024/01/03 13:07:19;;;;;;;2.43;2.10;;;;;;;;;;6280813;28;20190;-63
2024/01/03 13:10:20;;;;;;;2.90;1.70;;;;;;;;;;6301019;28;20636;-64
2024/01/03 13:13:21;;;;;;;4.33;1.83;;;;;;;;;;6283633;28;20560;-64
2024/01/03 13:16:23;;;;;;;2.73;1.90;;;;;;;;;;6282150;28;20218;-65
2024/01/03 13:19:24;;;;;;;3.27;2.13;;;;;;;;;;6278784;28;20190;-65
2024/01/03 13:22:25;;;;;;;1.67;1.47;;;;;;;;;;6282725;28;20204;-65
2024/01/03 13:25:27;;;;;;;1.77;1.67;;;;;;;;;;6293225;28;20191;-66
2024/01/03 13:28:29;;;;;;;2.37;1.50;;;;;;;;;;6288211;28;20191;-66
2024/01/03 13:31:30;;;;;;;3.50;1.50;;;;;;;;;;6281600;28;20235;-66
2024/01/03 13:34:32;;;;;;;1.53;1.20;;;;;;;;;;6304581;28;20181;-66
2024/01/03 13:37:33;;;;;;;1.87;1.20;;;;;;;;;;6286818;28;20193;-66
2024/01/03 13:40:35;;;;;;;5.07;1.50;;;;;;;;;;6291699;28;20189;-66
2024/01/03 13:43:36;;;;;;;2.23;1.57;;;;;;;;;;6309579;28;20212;-66
2024/01/03 13:46:37;;;;;;;2.87;0.93;;;;;;;;;;6297930;28;20267;-66
2024/01/03 13:49:38;;;;;;;1.67;1.20;;;;;;;;;;6286629;28;20201;-66
2024/01/03 13:52:41;;;;;;;2.10;1.17;;;;;;;;;;6291040;28;20291;-66
2024/01/03 13:55:42;;;;;;;1.67;1.43;;;;;;;;;;6291471;28;20189;-66
2024/01/03 13:58:46;;;;;;;1.40;1.23;;;;;;;;;;6296272;28;20251;-65
2024/01/03 14:01:48;;;;;;;1.33;1.17;;;;;;;;;;6299866;28;20204;-65
2024/01/03 14:04:49;;;;;;;1.50;1.00;;;;;;;;;;6304754;28;20182;-66
2024/01/03 14:07:51;;;;;;;1.20;1.10;;;;;;;;;;6288159;28;20216;-66
2024/01/03 14:10:52;;;;;;;1.63;1.40;;;;;;;;;;6294667;28;20285;-64
2024/01/03 14:13:53;;;;;;;1.43;1.30;;;;;;;;;;6291025;28;20218;-64
2024/01/03 14:17:00;;;;;;;2.70;1.40;;;;;;;;;;6299729;28;20216;-66
2024/01/03 14:20:05;;;;;;;1.90;1.40;;;;;;;;;;6285941;28;20194;-66
2024/01/03 14:23:06;;;;;;;2.03;1.23;;;;;;;;;;6287617;28;20214;-66
2024/01/03 14:26:10;;;;;;;1.30;1.20;;;;;;;;;;6285917;28;20208;-65
2024/01/03 14:29:11;;;;;;;1.67;1.20;;;;;;;;;;6303708;28;20185;-65
2024/01/03 14:32:12;;;;;;;1.20;1.10;;;;;;;;;;6276985;28;20229;-65
2024/01/03 14:35:16;;;;;;;1.40;1.20;;;;;;;;;;6282614;28;20290;-66
2024/01/03 14:38:17;;;;;;;2.53;1.67;;;;;;;;;;6285386;28;20193;-65
2024/01/03 14:41:19;;;;;;;2.43;1.67;;;;;;;;;;6286559;28;20197;-66
2024/01/03 14:44:22;;;;;;;2.97;1.80;;;;;;;;;;6296196;28;20228;-65
2024/01/03 14:47:23;;;;;;;3.53;2.13;;;;;;;;;;6287117;28;20469;-66
2024/01/03 14:50:24;;;;;;;1.63;1.40;;;;;;;;;;6288645;28;20246;-66
2024/01/03 14:53:26;;;;;;;2.00;1.50;;;;;;;;;;6292832;28;20197;-67
2024/01/03 14:56:27;;;;;;;2.43;1.67;;;;;;;;;;6290180;28;20244;-67
2024/01/03 14:59:28;;;;;;;2.80;1.80;;;;;;;;;;6288838;28;20201;-65
2024/01/03 15:02:31;;;;;;;3.17;1.90;;;;;;;;;;6281071;28;20213;-65
2024/01/03 15:05:34;;;;;;;2.87;1.80;;;;;;;;;;6294608;28;20267;-65
2024/01/03 15:08:36;;;;;;;2.03;1.57;;;;;;;;;;6288784;28;20185;-65
2024/01/03 15:11:37;;;;;;;1.87;1.30;;;;;;;;;;6295546;28;20185;-65
2024/01/03 15:14:38;;;;;;;2.43;1.50;;;;;;;;;;6289119;28;20193;-65
2024/01/03 15:17:39;;;;;;;2.57;1.70;;;;;;;;;;6286990;28;20203;-65
2024/01/03 15:20:41;;;;;;;4.03;1.70;;;;;;;;;;6290341;28;20211;-63
2024/01/03 15:23:42;;;;;;;5.93;4.63;;;;;;;;;;6300774;28;20300;-64
2024/01/03 15:26:43;;;;;;;6.83;3.53;;;9.20;68.50;;;;;;6298570;28;20192;-67
2024/01/03 15:29:44;;;;;;;4.83;3.97;;;8.90;73.90;;;;;;6262811;28;20205;-63
2024/01/03 15:32:44;;;;;;;5.87;4.27;;;8.80;74.20;;;;;;6269736;28;20220;-65
2024/01/03 15:35:46;;;;;;;5.33;3.17;;;8.60;74.70;;;;;;6284774;28;20203;-64
2024/01/03 15:38:46;;;;;;;2.60;2.40;;;8.60;75.40;;;;;;6287686;28;20223;-65
2024/01/03 15:41:47;;;;;;;2.33;2.13;;;8.40;75.60;;;;;;6285652;28;20200;-66
2024/01/03 15:44:48;;;;;;;3.90;2.30;;;8.30;75.50;;;;;;6286899;28;20209;-67
2024/01/03 15:47:49;;;;;;;2.97;2.13;;;8.10;75.80;;;;;;6275525;28;20193;-66
2024/01/03 15:50:49;;;;;;;5.13;2.63;;;8.00;76.50;;;;;;6289331;28;20199;-67
2024/01/03 15:53:51;;;;;;;5.50;2.80;;;7.80;76.80;;;;;;6263956;28;20197;-67
2024/01/03 15:56:52;;;;;;;13.67;7.17;;;;;;;;;;6269156;28;20235;-67
2024/01/03 15:59:53;;;;;;;9.67;6.10;;;;;;;;;;6271030;28;20982;-66
2024/01/03 16:02:54;;;;;;;8.87;5.73;;;;;;;;;;6278959;28;20240;-66
2024/01/03 16:05:56;;;;;;;10.43;5.83;;;;;;;;;;6287227;28;20196;-66
2024/01/03 16:08:57;;;;;;;9.43;5.40;;;;;;;;;;6299383;28;20272;-67
2024/01/03 16:11:58;;;;;;;7.30;4.77;;;7.70;77.00;;;;;;6287992;28;20262;-64
2024/01/03 16:14:58;;;;;;;4.83;3.73;;;7.00;79.20;;;;;;6288348;28;20651;-66
2024/01/03 16:17:59;;;;;;;6.10;3.33;;;7.00;79.20;;;;;;6262711;28;20196;-66
2024/01/03 16:21:00;;;;;;;3.63;3.10;;;6.90;79.50;;;;;;6268594;28;20184;-66
2024/01/03 16:24:01;;;;;;;4.03;3.00;;;6.80;79.70;;;;;;6264953;28;20205;-68
2024/01/03 16:27:04;;;;;;;6.07;2.73;;;6.80;80.20;;;;;;6278944;28;20184;-67
2024/01/03 16:30:06;;;;;;;3.37;2.70;;;6.70;80.30;;;;;;6263522;28;20196;-68
2024/01/03 16:33:07;;;;;;;4.17;2.70;;;6.70;80.60;;;;;;6269985;28;20196;-67